Time;durP1;ratioP1;P1;durP2;ratioP2;P2;SDS_P1;SDS_P2;PMS_P1;PMS_P2;Temp;Humidity;BMP_temperature;BMP_pressure;BME280_temperature;BME280_humidity;BME280_pressure;Samples;Min_cycle;Max_cycle;Signal;HPM_P1;HPM_P2
2022/04/29 00:00:11;;;;;;;3.43;3.13;;;;;;;9.50;59.04;99983.31;5122421;27;42283;-73
2022/04/29 00:02:39;;;;;;;3.97;3.40;;;;;;;9.53;58.69;99989.31;5111756;28;39223;-72
2022/04/29 00:05:08;;;;;;;4.07;2.77;;;;;;;9.51;58.85;99982.38;5112732;28;41729;-73
2022/04/29 00:07:37;;;;;;;2.93;2.63;;;;;;;9.48;58.64;99980.72;5111039;28;41802;-73
2022/04/29 00:10:05;;;;;;;3.07;2.73;;;;;;;9.46;58.47;99985.22;5112329;28;43178;-73
2022/04/29 00:12:35;;;;;;;3.23;2.93;;;;;;;9.45;58.73;99978.19;5111117;28;40802;-74
2022/04/29 00:15:03;;;;;;;3.30;3.00;;;;;;;9.42;58.76;99978.31;5110206;28;40558;-72
2022/04/29 00:17:33;;;;;;;3.67;2.97;;;;;;;9.38;59.26;99963.50;5112358;28;42919;-73
2022/04/29 00:20:01;;;;;;;3.10;2.80;;;;;;;9.30;59.28;99961.16;5112284;28;43118;-72
2022/04/29 00:22:28;;;;;;;2.97;2.60;;;;;;;9.34;58.85;99977.75;5125036;27;40026;-72
2022/04/29 00:24:56;;;;;;;4.73;3.10;;;;;;;9.30;58.99;99965.56;5131692;27;40692;-73
2022/04/29 00:27:24;;;;;;;3.20;2.90;;;;;;;9.28;58.82;99970.91;5130556;27;43226;-72
2022/04/29 00:29:53;;;;;;;3.40;2.93;;;;;;;9.19;59.16;99962.50;5114530;27;41345;-74
2022/04/29 00:32:22;;;;;;;2.67;2.47;;;;;;;9.22;58.98;99970.31;5114229;27;40049;-72
2022/04/29 00:34:50;;;;;;;3.63;2.80;;;;;;;9.07;59.16;99949.75;5114200;27;40892;-73
2022/04/29 00:37:17;;;;;;;3.87;3.30;;;;;;;9.16;59.03;99959.97;5131072;27;42778;-73
2022/04/29 00:39:45;;;;;;;3.23;2.60;;;;;;;9.12;59.23;99972.47;5131522;27;42435;-73
2022/04/29 00:42:15;;;;;;;2.93;2.43;;;;;;;9.06;59.54;99967.41;5132474;27;39947;-74
2022/04/29 00:44:43;;;;;;;3.20;2.83;;;;;;;9.05;59.29;99972.75;5114165;27;40695;-73
2022/04/29 00:47:17;;;;;;;3.10;2.60;;;;;;;9.02;59.89;99964.94;5132600;27;20639;-73
2022/04/29 00:49:46;;;;;;;4.70;3.63;;;;;;;8.89;60.15;99939.00;5129636;27;43255;-73
2022/04/29 00:52:16;;;;;;;4.00;2.63;;;;;;;8.97;60.75;99949.25;5131217;27;40059;-73
2022/04/29 00:54:52;;;;;;;3.87;3.27;;;;;;;8.95;60.77;99954.59;5128294;27;41763;-72
2022/04/29 00:57:26;;;;;;;3.57;3.27;;;;;;;8.92;60.50;99948.56;5130411;27;43438;-72
2022/04/29 01:00:08;;;;;;;3.50;2.63;;;;;;;8.88;60.44;99947.84;5127386;27;43295;-72
2022/04/29 01:02:41;;;;;;;3.47;3.17;;;;;;;8.86;61.78;99946.16;5113623;27;41226;-73
2022/04/29 01:05:11;;;;;;;3.97;3.20;;;;;;;8.82;61.05;99942.78;5114057;27;41909;-74
2022/04/29 01:07:40;;;;;;;4.50;2.80;;;;;;;8.80;61.28;99949.03;5131011;27;43827;-72
2022/04/29 01:10:12;;;;;;;2.93;2.57;;;;;;;8.77;60.92;99944.75;5130941;27;43432;-74
2022/04/29 01:12:42;;;;;;;3.23;2.80;;;;;;;8.74;61.00;99941.34;5128070;27;40919;-73
2022/04/29 01:15:13;;;;;;;3.20;2.90;;;;;;;8.69;60.92;99941.50;5113525;27;41404;-73
2022/04/29 01:17:45;;;;;;;4.47;3.37;;;;;;;8.66;61.36;99941.63;5127921;27;43642;-73
2022/04/29 01:20:15;;;;;;;3.67;3.13;;;;;;;8.63;61.00;99944.41;5128793;27;43302;-72
2022/04/29 01:22:45;;;;;;;3.60;3.03;;;;;;;8.59;61.17;99945.44;5131019;27;40910;-73
2022/04/29 01:25:13;;;;;;;2.63;2.43;;;;;;;8.56;61.29;99941.13;5113243;27;40595;-74
2022/04/29 01:27:49;;;;;;;4.40;3.47;;;;;;;8.53;61.70;99940.38;5127686;27;43356;-73
2022/04/29 01:30:17;;;;;;;3.63;3.20;;;;;;;8.50;61.29;99936.06;5130531;27;43136;-72
2022/04/29 01:32:46;;;;;;;3.50;3.20;;;;;;;8.45;61.48;99932.72;5113092;27;39651;-72
2022/04/29 01:35:15;;;;;;;3.63;3.00;;;;;;;8.32;61.45;99925.31;5130551;27;42326;-73
2022/04/29 01:37:45;;;;;;;4.83;3.47;;;;;;;8.39;61.50;99942.66;5114386;27;41334;-73
2022/04/29 01:40:14;;;;;;;3.40;3.10;;;;;;;8.36;61.53;99937.50;5116855;27;41435;-73
2022/04/29 01:42:43;;;;;;;3.40;3.10;;;;;;;8.32;61.75;99930.59;5133861;27;40926;-73
2022/04/29 01:45:12;;;;;;;4.10;3.13;;;;;;;8.28;61.61;99933.28;5134264;27;41736;-73
2022/04/29 01:47:58;;;;;;;3.87;2.90;;;;;;;8.25;62.74;99936.06;5131156;27;42970;-72
2022/04/29 01:50:30;;;;;;;4.60;4.10;;;;;;;8.23;62.56;99935.25;5131292;27;42862;-72
2022/04/29 01:52:59;;;;;;;4.33;3.47;;;;;;;8.21;62.59;99929.16;5135420;27;41829;-73
2022/04/29 01:55:27;;;;;;;4.07;3.60;;;;;;;8.19;62.90;99927.50;5116737;27;41769;-73
2022/04/29 01:57:56;;;;;;;3.93;3.33;;;;;;;8.18;62.94;99931.91;5134050;27;42756;-72
2022/04/29 02:00:24;;;;;;;5.13;3.57;;;;;;;8.16;62.83;99936.38;5116646;27;41222;-73
2022/04/29 02:02:52;;;;;;;3.47;3.17;;;;;;;8.15;63.38;99929.41;5134199;27;40225;-73
2022/04/29 02:05:20;;;;;;;4.60;4.13;;;;;;;8.14;63.81;99910.97;5133746;27;42663;-73
2022/04/29 02:07:49;;;;;;;5.97;4.13;;;;;;;8.15;64.55;99928.53;5133872;27;41841;-73
2022/04/29 02:10:18;;;;;;;5.13;3.77;;;;;;;8.13;63.91;99925.94;5133618;27;43237;-73
2022/04/29 02:12:48;;;;;;;3.73;3.00;;;;;;;8.11;63.69;99924.28;5134068;27;39827;-72
2022/04/29 02:15:16;;;;;;;6.07;3.37;;;;;;;8.08;63.50;99917.31;5133181;27;41850;-72
2022/04/29 02:17:46;;;;;;;5.13;3.73;;;;;;;8.07;64.28;99914.75;5116510;27;42628;-73
2022/04/29 02:20:13;;;;;;;4.43;3.20;;;;;;;8.06;63.84;99913.88;5133630;27;42278;-73
2022/04/29 02:22:41;;;;;;;3.97;3.40;;;;;;;8.04;63.33;99915.69;5116823;27;38818;-73
2022/04/29 02:25:09;;;;;;;4.00;3.07;;;;;;;8.00;63.59;99911.47;5116405;27;40811;-73
2022/04/29 02:27:39;;;;;;;3.93;3.17;;;;;;;7.98;63.36;99913.28;5133363;27;43263;-72
2022/04/29 02:30:08;;;;;;;2.90;2.70;;;;;;;7.93;63.51;99913.44;5116522;27;42547;-72
2022/04/29 02:32:36;;;;;;;2.83;2.60;;;;;;;7.91;63.63;99914.44;5133607;27;40120;-73
2022/04/29 02:35:06;;;;;;;3.27;2.60;;;;;;;7.88;63.46;99903.97;5133480;27;41641;-73
2022/04/29 02:37:35;;;;;;;4.10;2.87;;;;;;;7.87;64.52;99904.91;5133174;27;42079;-73
2022/04/29 02:40:03;;;;;;;3.63;2.87;;;;;;;7.84;64.02;99905.84;5112191;27;41180;-72
2022/04/29 02:42:32;;;;;;;4.13;3.20;;;;;;;7.69;63.95;99876.50;5132363;27;40846;-72
2022/04/29 02:45:02;;;;;;;4.10;3.67;;;;;;;7.79;64.50;99899.88;5131215;27;42521;-72
2022/04/29 02:47:42;;;;;;;4.00;3.53;;;;;;;7.77;64.46;99900.88;5116083;27;42132;-73
2022/04/29 02:50:11;;;;;;;3.87;3.47;;;;;;;7.75;64.26;99902.69;5132298;27;41544;-73
2022/04/29 02:52:40;;;;;;;5.73;3.93;;;;;;;7.72;64.32;99908.06;5116063;27;39725;-72
2022/04/29 02:55:09;;;;;;;3.83;3.10;;;;;;;7.70;64.03;99904.59;5133311;27;41703;-72
2022/04/29 02:57:59;;;;;;;3.33;2.87;;;;;;;7.66;63.94;99903.00;5133622;27;43289;-73
2022/04/29 03:00:29;;;;;;;3.10;2.63;;;;;;;7.52;63.95;99892.91;5114685;27;42248;-74
2022/04/29 03:02:57;;;;;;;3.50;3.10;;;;;;;7.61;63.97;99911.06;5115651;27;39327;-72
2022/04/29 03:05:26;;;;;;;3.13;2.93;;;;;;;7.58;63.75;99912.00;5115571;27;39949;-72
2022/04/29 03:07:53;;;;;;;3.63;2.90;;;;;;;7.55;63.90;99906.84;5132916;27;43575;-73
2022/04/29 03:10:21;;;;;;;2.93;2.50;;;;;;;7.53;63.83;99907.84;5132704;27;42259;-72
2022/04/29 03:12:49;;;;;;;2.83;2.53;;;;;;;7.51;64.17;99912.28;5115853;27;40285;-72
2022/04/29 03:15:25;;;;;;;3.97;3.10;;;;;;;7.49;64.45;99914.09;5115431;27;40060;-71
2022/04/29 03:20:47;;;;;;;3.10;2.80;;;;;;;7.44;65.24;99908.09;5115700;27;41247;-72
2022/04/29 03:23:16;;;;;;;4.97;3.33;;;;;;;7.43;64.92;99912.53;5115971;27;38217;-72
2022/04/29 03:25:48;;;;;;;4.17;3.40;;;;;;;7.42;64.87;99908.16;5130329;27;42632;-71
2022/04/29 03:28:16;;;;;;;3.07;2.67;;;;;;;7.42;64.51;99916.06;5115359;27;41685;-74
2022/04/29 03:30:45;;;;;;;4.10;3.70;;;;;;;7.42;65.07;99904.66;5132300;27;42010;-73
2022/04/29 03:33:15;;;;;;;4.43;3.77;;;;;;;7.40;65.22;99902.09;5115507;27;41247;-72
2022/04/29 03:35:45;;;;;;;4.37;3.77;;;;;;;7.42;64.96;99905.53;5115647;27;40601;-73
2022/04/29 03:38:36;;;;;;;4.90;3.20;;;;;;;7.41;64.83;99905.59;5133990;27;43133;-72
2022/04/29 03:41:05;;;;;;;4.30;3.90;;;;;;;7.41;64.88;99913.50;5132349;27;43536;-72
2022/04/29 03:43:34;;;;;;;4.73;3.73;;;;;;;7.40;64.72;99917.06;5132750;27;40822;-72
2022/04/29 03:46:02;;;;;;;4.97;4.47;;;;;;;7.39;64.51;99916.19;5132408;27;41547;-72
2022/04/29 03:51:54;;;;;;;3.87;3.07;;;;;;;7.39;64.82;99916.19;5115097;27;41226;-72
2022/04/29 03:54:22;;;;;;;4.67;4.07;;;;;;;7.30;64.90;99905.91;5132191;27;40902;-71
2022/04/29 03:56:55;;;;;;;4.73;4.33;;;;;;;7.40;65.07;99912.66;5131231;27;42888;-72
2022/04/29 03:59:23;;;;;;;3.43;2.97;;;;;;;7.43;65.10;99914.28;5133377;27;42893;-72
2022/04/29 04:01:51;;;;;;;4.67;3.43;;;;;;;7.43;65.29;99909.03;5129086;27;42291;-72
2022/04/29 04:04:20;;;;;;;4.00;3.53;;;;;;;7.45;65.56;99901.94;5132170;27;40053;-73
2022/04/29 04:06:51;;;;;;;3.63;3.33;;;;;;;7.49;65.89;99896.53;5114843;27;41985;-72
2022/04/29 04:09:24;;;;;;;3.80;3.40;;;;;;;7.54;65.43;99904.28;5128815;27;42684;-72
2022/04/29 04:11:56;;;;;;;4.10;3.70;;;;;;;7.57;65.21;99909.44;5131011;27;43009;-73
2022/04/29 04:14:42;;;;;;;4.87;4.13;;;;;;;7.55;64.88;99904.19;5130172;27;39959;-72
2022/04/29 04:17:09;;;;;;;4.17;3.77;;;;;;;7.61;64.99;99915.47;5114596;27;41669;-71
2022/04/29 04:19:38;;;;;;;4.63;3.90;;;;;;;7.52;64.93;99896.41;5114664;27;41589;-71
2022/04/29 04:22:06;;;;;;;4.90;3.80;;;;;;;7.24;64.96;99850.81;5113989;27;41705;-72
2022/04/29 04:24:35;;;;;;;4.33;3.93;;;;;;;7.63;64.79;99929.47;5131763;27;41049;-72
2022/04/29 04:27:04;;;;;;;3.13;2.80;;;;;;;7.62;64.53;99925.09;5126682;27;42719;-72
2022/04/29 04:29:32;;;;;;;3.20;2.90;;;;;;;7.57;64.72;99915.56;5116461;27;43663;-72
2022/04/29 04:32:00;;;;;;;5.07;3.80;;;;;;;7.63;64.99;99918.91;5112225;27;42369;-72
2022/04/29 04:37:14;;;;;;;4.73;3.43;;;;;;;7.69;64.69;99931.88;5130805;27;41684;-72
2022/04/29 04:39:41;;;;;;;3.70;3.03;;;;;;;7.73;64.45;99930.88;5131414;27;43599;-72
2022/04/29 04:42:13;;;;;;;3.97;3.50;;;;;;;7.82;64.58;99935.81;5111010;27;42254;-72
2022/04/29 04:44:49;;;;;;;4.13;3.73;;;;;;;7.86;64.26;99925.13;5103068;27;39990;-73
2022/04/29 04:47:18;;;;;;;4.77;3.43;;;;;;;7.96;64.27;99928.31;5131062;27;41698;-73
2022/04/29 04:50:07;;;;;;;3.40;3.07;;;;;;;8.03;64.59;99932.47;5114025;27;42907;-74
2022/04/29 04:52:39;;;;;;;4.67;3.37;;;;;;;8.08;64.65;99935.78;5110782;28;42334;-73
2022/04/29 04:55:08;;;;;;;3.70;3.40;;;;;;;8.05;65.09;99922.69;5094006;28;38807;-74
2022/04/29 04:57:41;;;;;;;4.10;3.67;;;;;;;8.15;64.89;99937.31;5093967;28;40745;-73
2022/04/29 05:00:09;;;;;;;3.63;3.33;;;;;;;8.19;65.01;99941.56;5113709;27;41885;-74
2022/04/29 05:03:04;;;;;;;3.43;3.13;;;;;;;8.26;64.82;99942.22;5112712;27;43512;-74
2022/04/29 05:05:58;;;;;;;3.70;2.80;;;;;;;8.36;64.52;99945.41;5130659;27;39049;-75
2022/04/29 05:08:27;;;;;;;3.53;3.20;;;;;;;8.47;64.51;99946.75;5131203;27;41826;-73
2022/04/29 05:10:55;;;;;;;4.10;3.67;;;;;;;8.62;64.06;99950.59;5113742;27;43080;-77
2022/04/29 05:13:23;;;;;;;4.17;3.77;;;;;;;8.77;63.93;99950.03;5132956;27;43207;-74
2022/04/29 05:15:53;;;;;;;3.90;3.37;;;;;;;8.92;64.04;99949.44;5134460;27;40821;-74
2022/04/29 05:18:28;;;;;;;4.60;4.10;;;;;;;9.08;64.14;99943.56;5115577;27;40933;-73
2022/04/29 05:21:05;;;;;;;4.50;3.80;;;;;;;9.20;64.27;99943.94;5112269;28;43617;-73
2022/04/29 05:23:36;;;;;;;5.83;4.07;;;;;;;9.29;64.13;99942.69;5113956;28;41306;-74
2022/04/29 05:26:39;;;;;;;5.40;4.40;;;;;;;9.34;63.89;99935.47;5052153;28;39693;-74
2022/04/29 05:29:25;;;;;;;4.73;4.23;;;;;;;9.38;63.84;99939.72;5107241;28;40372;-74
2022/04/29 05:32:13;;;;;;;6.13;4.27;;;;;;;9.38;63.94;99942.34;5144995;27;43339;-73
2022/04/29 05:35:00;;;;;;;5.37;4.10;;;;;;;9.38;64.06;99952.06;5132835;27;42141;-73
2022/04/29 05:37:47;;;;;;;5.20;4.53;;;;;;;9.34;63.91;99952.19;5134470;27;39042;-77
2022/04/29 05:43:07;;;;;;;4.33;3.63;;;;;;;9.31;63.97;99954.09;5114342;27;43170;-74
2022/04/29 05:45:35;;;;;;;4.00;3.60;;;;;;;9.33;63.77;99949.59;5133394;27;43387;-73
2022/04/29 05:48:03;;;;;;;5.73;4.47;;;;;;;9.36;63.48;99954.78;5134492;27;40271;-73
2022/04/29 05:50:33;;;;;;;4.67;4.17;;;;;;;9.44;63.60;99951.81;5112084;27;41053;-73
2022/04/29 05:53:02;;;;;;;3.80;3.47;;;;;;;9.47;63.51;99949.03;5116745;27;42476;-73
2022/04/29 05:55:32;;;;;;;4.93;4.00;;;;;;;9.55;63.53;99950.44;5114503;27;42181;-75
2022/04/29 05:58:01;;;;;;;4.07;3.67;;;;;;;9.63;63.12;99956.31;5116553;27;40020;-75
2022/04/29 06:00:28;;;;;;;4.33;3.63;;;;;;;9.73;63.18;99957.66;5127318;27;42216;-73
2022/04/29 06:03:04;;;;;;;4.60;4.00;;;;;;;9.86;63.56;99959.78;5116220;27;41793;-75
2022/04/29 06:05:33;;;;;;;5.17;3.50;;;;;;;10.02;63.04;99955.53;5115070;27;41258;-74
2022/04/29 06:08:01;;;;;;;4.43;4.03;;;;;;;10.22;63.57;99958.22;5108349;28;40877;-73
2022/04/29 06:10:39;;;;;;;4.77;4.30;;;;;;;10.54;63.17;99959.44;5126514;27;41565;-73
2022/04/29 06:13:08;;;;;;;5.27;4.77;;;;;;;10.91;62.67;99969.25;5133185;27;44445;-73
2022/04/29 06:15:47;;;;;;;5.70;4.50;;;;;;;11.28;62.17;99962.22;5133173;27;42755;-73
2022/04/29 06:18:43;;;;;;;5.93;5.03;;;;;;;11.63;62.22;99966.66;5133151;27;39043;-74
2022/04/29 06:21:31;;;;;;;7.13;5.63;;;;;;;11.93;61.91;99956.38;5093043;27;41814;-73
2022/04/29 06:24:17;;;;;;;7.47;5.97;;;;;;;12.37;61.07;99959.38;5135933;27;41793;-72
2022/04/29 06:26:47;;;;;;;8.30;5.23;;;;;;;12.90;59.97;99960.97;5123163;27;41832;-72
2022/04/29 06:29:15;;;;;;;7.80;6.00;;;;;;;13.55;58.49;99968.00;5116185;27;40160;-72
2022/04/29 06:31:42;;;;;;;6.73;5.70;;;;;;;14.26;56.70;99980.72;5115824;27;41830;-73
2022/04/29 06:34:49;;;;;;;10.63;6.37;;;;;;;15.29;54.03;99998.34;5133958;27;42668;-73
2022/04/29 06:37:20;;;;;;;7.13;5.93;;;;;;;15.92;52.76;100005.81;5116089;27;41808;-73
2022/04/29 06:39:48;;;;;;;6.67;6.07;;;;;;;16.28;51.98;99998.97;5130068;27;40212;-74
2022/04/29 06:42:47;;;;;;;7.27;5.97;;;;;;;16.32;51.70;99997.81;5129719;27;42713;-77
2022/04/29 06:45:33;;;;;;;7.30;6.27;;;;;;;16.22;52.04;100000.22;5129920;27;43806;-76
2022/04/29 06:48:20;;;;;;;7.57;5.87;;;;;;;16.20;52.35;99996.78;5113220;28;41493;-73
2022/04/29 06:51:06;;;;;;;7.30;6.47;;;;;;;16.30;52.30;99997.06;5116932;27;39923;-75
2022/04/29 06:53:47;;;;;;;8.13;6.70;;;;;;;16.36;51.98;99981.44;5116253;27;41800;-77
2022/04/29 06:56:19;;;;;;;9.03;6.03;;;;;;;16.73;51.73;100003.00;5117960;27;43767;-76
2022/04/29 06:58:49;;;;;;;8.40;6.53;;;;;;;16.99;51.00;100006.53;5115819;27;42430;-76
2022/04/29 07:01:17;;;;;;;7.67;6.63;;;;;;;17.18;50.50;99990.91;5120521;27;42216;-78
2022/04/29 07:03:45;;;;;;;8.23;6.63;;;;;;;17.57;50.29;100004.06;5133807;27;41456;-78
2022/04/29 07:06:14;;;;;;;9.17;7.03;;;;;;;17.77;48.91;99999.97;5133155;27;42625;-77
2022/04/29 07:08:42;;;;;;;7.03;6.33;;;;;;;18.08;49.21;100003.88;5132938;27;42934;-76
2022/04/29 07:11:31;;;;;;;8.10;7.30;;;;;;;18.21;48.59;100001.97;5111344;28;39939;-76
2022/04/29 07:14:10;;;;;;;8.47;7.40;;;;;;;18.38;48.47;99998.03;5097047;27;40110;-78
2022/04/29 07:16:55;;;;;;;8.17;6.73;;;;;;;18.53;48.14;99998.69;5115097;27;41593;-76
2022/04/29 07:19:44;;;;;;;6.63;6.03;;;;;;;18.63;47.67;99989.81;5115559;27;42731;-76
2022/04/29 07:22:12;;;;;;;7.53;6.73;;;;;;;18.65;46.62;99997.75;5132063;27;40014;-76
2022/04/29 07:24:47;;;;;;;7.90;7.10;;;;;;;18.67;46.42;100010.06;5114853;27;41835;-77
2022/04/29 07:27:15;;;;;;;8.70;6.53;;;;;;;18.69;47.00;100001.03;5110426;28;41847;-76
2022/04/29 07:29:44;;;;;;;6.73;6.13;;;;;;;18.91;47.29;99998.41;5098443;27;44041;-77
2022/04/29 07:32:17;;;;;;;8.23;7.40;;;;;;;19.28;46.25;99997.19;5096219;28;38936;-78
2022/04/29 07:43:28;;;;;;;7.17;6.47;;;;;;;19.91;45.76;99995.59;5130462;27;40741;-76
2022/04/29 07:45:58;;;;;;;7.20;6.50;;;;;;;20.01;43.96;100003.78;5110189;27;41471;-73
2022/04/29 07:48:28;;;;;;;7.03;6.33;;;;;;;20.10;44.41;100000.31;5111309;28;45120;-75
2022/04/29 07:50:57;;;;;;;6.90;6.13;;;;;;;20.16;44.10;100002.47;5130113;27;42203;-78
2022/04/29 07:53:26;;;;;;;7.50;6.73;;;;;;;20.24;43.07;100007.22;5153215;27;40845;-76
2022/04/29 07:55:54;;;;;;;8.53;7.30;;;;;;;20.50;43.74;99992.47;5152610;27;41749;-79
2022/04/29 07:58:22;;;;;;;8.73;7.03;;;;;;;20.57;42.65;100003.53;5153631;27;42838;-79
2022/04/29 08:00:50;;;;;;;8.30;6.70;;;;;;;20.63;42.42;100003.03;5152680;27;43163;-77
2022/04/29 08:03:19;;;;;;;7.83;7.13;;;;;;;20.69;43.26;99994.41;5135540;27;38923;-75
2022/04/29 08:06:00;;;;;;;8.20;7.40;;;;;;;20.80;42.83;100005.09;5150625;27;41637;-74
2022/04/29 08:08:27;;;;;;;7.50;6.70;;;;;;;21.12;41.94;99999.63;5134065;27;42698;-74
2022/04/29 08:10:55;;;;;;;7.70;6.93;;;;;;;21.57;42.18;99996.53;5149612;27;42314;-75
2022/04/29 08:13:24;;;;;;;6.90;6.30;;;;;;;21.91;41.51;99986.22;5135573;27;39373;-76
2022/04/29 08:16:10;;;;;;;7.47;6.77;;;;;;;22.40;39.81;100009.56;5151614;27;41847;-75
2022/04/29 08:19:04;;;;;;;8.23;7.43;;;;;;;22.72;39.12;100009.25;5149040;27;42438;-76
2022/04/29 08:21:51;;;;;;;6.97;6.37;;;;;;;23.33;39.44;100008.81;5152749;27;42318;-76
2022/04/29 08:24:19;;;;;;;7.63;6.67;;;;;;;23.75;38.39;100010.00;5152236;27;40082;-76
2022/04/29 08:26:46;;;;;;;7.37;6.77;;;;;;;24.13;38.19;100014.31;5152283;27;41794;-74
2022/04/29 08:29:14;;;;;;;6.37;5.87;;;;;;;24.50;37.93;100011.47;5134284;27;42969;-76
2022/04/29 08:31:42;;;;;;;6.50;5.90;;;;;;;25.03;35.48;100026.78;5134669;27;41512;-74
2022/04/29 08:34:11;;;;;;;7.30;6.60;;;;;;;25.77;35.35;100020.72;5151863;27;39492;-73
2022/04/29 08:36:39;;;;;;;7.17;6.47;;;;;;;26.45;35.24;100028.72;5152191;27;41978;-75
2022/04/29 08:39:07;;;;;;;6.53;5.93;;;;;;;27.42;33.75;100034.03;5151350;27;42772;-75
2022/04/29 08:41:37;;;;;;;6.70;6.03;;;;;;;28.11;32.45;100018.72;5152003;27;43109;-76
2022/04/29 08:44:08;;;;;;;6.40;5.90;;;;;;;28.79;30.29;100047.94;5134003;27;39887;-76
2022/04/29 08:46:56;;;;;;;6.20;5.70;;;;;;;29.42;30.14;100041.19;5152000;27;41686;-74
2022/04/29 08:49:47;;;;;;;7.27;6.67;;;;;;;29.10;28.58;100052.38;5137704;27;42745;-78
2022/04/29 08:52:15;;;;;;;6.30;5.70;;;;;;;28.50;28.83;100051.38;5152600;27;42943;-80
2022/04/29 09:00:16;;;;;;;6.23;5.73;;;;;;;27.86;29.56;100042.53;5151029;27;42704;-75
2022/04/29 09:02:44;;;;;;;6.30;5.70;;;;;;;27.90;29.58;100045.75;5153470;27;42359;-77
2022/04/29 09:05:13;;;;;;;6.50;6.00;;;;;;;27.98;29.40;100043.00;5151664;27;40198;-77
2022/04/29 09:07:57;;;;;;;6.00;5.40;;;;;;;28.36;29.04;100037.66;5151933;27;41811;-72
2022/04/29 09:10:27;;;;;;;5.40;4.90;;;;;;;29.16;28.37;100036.13;5131529;27;44067;-74
2022/04/29 09:12:56;;;;;;;5.60;5.10;;;;;;;30.01;27.09;100046.59;5148899;27;43018;-76
2022/04/29 09:15:24;;;;;;;6.00;5.50;;;;;;;30.39;26.01;100049.94;5152265;27;39961;-75
2022/04/29 09:17:53;;;;;;;4.77;4.37;;;;;;;30.70;25.66;100052.38;5153159;27;41938;-76
2022/04/29 09:20:23;;;;;;;5.80;5.40;;;;;;;31.51;24.74;100052.81;5152370;27;42730;-77
2022/04/29 09:22:52;;;;;;;6.20;5.70;;;;;;;32.37;23.84;100052.16;5134768;27;41439;-78
2022/04/29 09:26:01;;;;;;;5.37;4.90;;;;;;;32.70;22.89;100056.81;5071389;28;41152;-77
2022/04/29 09:29:12;;;;;;;4.90;4.50;;;;;;;32.51;22.86;100054.91;5034303;28;42782;-78
2022/04/29 09:31:53;;;;;;;5.90;5.47;;;;;;;31.94;23.79;100047.97;5091485;27;45230;-78
2022/04/29 09:34:59;;;;;;;4.60;4.30;;;;;;;31.51;24.68;100048.16;5031197;28;42699;-75
2022/04/29 09:37:30;;;;;;;5.50;5.00;;;;;;;31.07;24.67;100032.88;5048294;28;41329;-76
2022/04/29 09:40:00;;;;;;;5.77;5.37;;;;;;;30.47;24.35;100047.06;5063070;27;40701;-78
2022/04/29 09:42:37;;;;;;;5.20;4.70;;;;;;;29.93;25.47;100022.91;5130442;27;43734;-75
2022/04/29 09:45:12;;;;;;;6.50;5.90;;;;;;;29.56;25.60;100020.34;5131332;27;43193;-76
2022/04/29 09:47:40;;;;;;;5.47;4.90;;;;;;;29.06;25.58;100018.31;5129117;27;41346;-76
2022/04/29 09:50:10;;;;;;;6.03;4.30;;;;;;;28.70;26.25;100013.53;5129921;27;42823;-74
2022/04/29 09:52:43;;;;;;;5.10;4.70;;;;;;;28.27;27.27;99987.00;5129782;27;43454;-76
2022/04/29 09:55:12;;;;;;;5.90;5.40;;;;;;;28.17;26.73;100001.69;5112176;27;41053;-74
2022/04/29 09:57:48;;;;;;;6.07;5.47;;;;;;;28.10;26.94;99995.25;5123341;27;39555;-76
2022/04/29 10:00:17;;;;;;;4.60;4.23;;;;;;;28.41;27.54;99975.31;5125007;27;41571;-76
2022/04/29 10:02:44;;;;;;;5.00;4.60;;;;;;;28.97;27.17;99982.09;5133874;27;43374;-74
2022/04/29 10:05:12;;;;;;;4.97;4.43;;;;;;;29.36;26.62;99981.84;5133089;27;42215;-75
2022/04/29 10:07:44;;;;;;;5.57;5.07;;;;;;;29.76;25.67;99982.38;5134132;27;40971;-76
2022/04/29 10:10:12;;;;;;;4.90;4.50;;;;;;;30.20;25.23;99979.50;5116411;27;40662;-75
2022/04/29 10:12:40;;;;;;;4.63;4.13;;;;;;;30.60;24.06;99994.44;5136123;27;42426;-76
2022/04/29 10:15:27;;;;;;;4.97;4.53;;;;;;;30.65;24.42;99979.13;5133790;27;42656;-75
2022/04/29 10:21:16;;;;;;;4.80;4.30;;;;;;;30.44;26.15;99964.59;5091136;27;41522;-76
2022/04/29 10:23:49;;;;;;;4.63;4.23;;;;;;;30.54;24.31;99981.56;5133265;27;43470;-75
2022/04/29 10:26:18;;;;;;;6.07;4.17;;;;;;;30.71;24.72;99972.00;5095319;28;43954;-76
2022/04/29 10:28:46;;;;;;;4.93;4.27;;;;;;;30.99;25.13;99975.59;5132416;27;41247;-75
2022/04/29 10:31:18;;;;;;;5.23;4.30;;;;;;;31.05;23.56;99982.97;5128888;27;42032;-77
2022/04/29 10:33:45;;;;;;;5.33;4.87;;;;;;;31.05;23.15;99987.59;5124873;27;42925;-79
2022/04/29 10:36:16;;;;;;;4.33;3.97;;;;;;;31.81;23.64;99979.41;5096996;28;41169;-78
2022/04/29 10:38:47;;;;;;;4.60;4.03;;;;;;;32.68;22.13;99993.06;5097539;28;38863;-77
2022/04/29 10:41:17;;;;;;;5.03;4.53;;;;;;;32.88;22.84;99969.25;5098031;27;42119;-76
2022/04/29 10:43:47;;;;;;;4.93;4.53;;;;;;;32.87;22.11;99985.94;5133370;27;42955;-76
2022/04/29 10:46:22;;;;;;;4.37;3.97;;;;;;;33.04;22.27;99978.94;5132013;27;41168;-76
2022/04/29 10:48:57;;;;;;;3.30;3.03;;;;;;;33.35;21.04;99983.75;5116062;27;39191;-75
2022/04/29 10:51:52;;;;;;;4.03;3.63;;;;;;;33.87;20.78;99978.06;5094734;28;40553;-78
2022/04/29 10:54:50;;;;;;;3.67;3.37;;;;;;;34.66;20.15;99962.09;5115138;27;44135;-77
2022/04/29 10:57:42;;;;;;;3.57;3.27;;;;;;;35.14;17.48;99998.91;5134305;27;43252;-76
2022/04/29 11:00:11;;;;;;;3.37;3.07;;;;;;;35.11;18.32;99990.28;5129466;27;41019;-76
2022/04/29 11:02:42;;;;;;;3.43;2.73;;;;;;;35.27;17.90;99986.94;5130370;27;42479;-77
2022/04/29 11:05:34;;;;;;;3.53;3.23;;;;;;;35.39;17.42;99989.78;5131358;27;42973;-76
2022/04/29 11:08:08;;;;;;;3.20;3.00;;;;;;;35.48;17.25;99974.66;5134364;27;43189;-77
2022/04/29 11:10:55;;;;;;;3.00;2.67;;;;;;;36.10;16.63;99989.13;5130376;27;40047;-77
2022/04/29 11:13:24;;;;;;;3.30;3.00;;;;;;;36.77;16.43;99973.22;5131257;27;44489;-75
2022/04/29 11:16:13;;;;;;;2.97;2.77;;;;;;;37.09;16.11;99977.31;5141757;27;42538;-77
2022/04/29 11:19:20;;;;;;;2.30;2.20;;;;;;;35.63;15.48;99983.34;5136473;27;43954;-76
2022/04/29 11:24:43;;;;;;;2.70;2.50;;;;;;;34.09;16.80;99963.97;5114795;27;40750;-77
2022/04/29 11:27:16;;;;;;;2.73;2.53;;;;;;;34.06;17.19;99959.75;5115111;27;41804;-75
2022/04/29 11:29:46;;;;;;;3.20;2.90;;;;;;;34.24;18.21;99945.28;5114799;27;43549;-75
2022/04/29 11:32:25;;;;;;;3.57;3.17;;;;;;;34.05;16.90;99955.31;5132501;27;40882;-77
2022/04/29 11:34:53;;;;;;;3.00;2.80;;;;;;;33.87;17.92;99933.25;5132663;27;42878;-76
2022/04/29 11:37:24;;;;;;;3.27;3.00;;;;;;;33.91;18.34;99923.47;5111099;28;41302;-76
2022/04/29 11:39:52;;;;;;;2.90;2.70;;;;;;;34.19;19.53;99917.59;5129944;27;43171;-76
2022/04/29 11:42:22;;;;;;;3.10;2.60;;;;;;;34.65;18.84;99925.47;5132128;27;40786;-76
2022/04/29 11:44:50;;;;;;;3.07;2.80;;;;;;;35.08;17.16;99939.25;5128471;27;42079;-76
2022/04/29 11:47:23;;;;;;;3.47;3.17;;;;;;;34.80;17.00;99949.91;5130286;27;43704;-76
2022/04/29 11:49:52;;;;;;;3.07;2.83;;;;;;;34.33;17.63;99938.44;5132046;27;42552;-75
2022/04/29 11:52:21;;;;;;;2.90;2.70;;;;;;;34.28;17.60;99897.00;5132405;27;40927;-75
2022/04/29 11:54:53;;;;;;;2.80;2.50;;;;;;;34.96;17.31;99932.81;5114389;27;41758;-75
2022/04/29 11:57:22;;;;;;;2.67;2.47;;;;;;;36.18;16.21;99917.03;5131599;27;42501;-76
2022/04/29 11:59:51;;;;;;;2.97;2.67;;;;;;;37.81;15.66;99914.19;5129799;27;43266;-76
2022/04/29 12:02:20;;;;;;;3.00;2.80;;;;;;;39.10;14.62;99936.31;5131393;27;41045;-77
2022/04/29 12:04:56;;;;;;;3.47;2.90;;;;;;;39.58;13.82;99937.50;5130422;27;42022;-75
2022/04/29 12:07:24;;;;;;;3.97;2.40;;;;;;;40.29;13.52;99935.56;5114486;27;41147;-77
2022/04/29 12:09:54;;;;;;;3.43;3.17;;;;;;;40.72;12.99;99938.13;5109941;27;41055;-75
2022/04/29 12:12:28;;;;;;;3.20;3.00;;;;;;;41.33;12.61;99941.28;5111005;28;41371;-74
2022/04/29 12:14:58;;;;;;;3.20;2.90;;;;;;;42.08;12.74;99931.56;5120108;27;41524;-75
2022/04/29 12:17:33;;;;;;;3.55;3.33;;;;;;;43.00;11.51;99941.59;5099244;27;44183;-76
2022/04/29 12:20:01;;;;;;;3.65;2.67;;;;;;;43.79;12.28;99919.53;5128116;27;42244;-75
2022/04/29 12:22:30;;;;;;;3.05;2.75;;;;;;;44.03;11.95;99906.53;5130380;27;40472;-79
2022/04/29 12:24:58;;;;;;;2.63;2.42;;;;;;;44.33;11.38;99908.25;5132369;27;42128;-77
2022/04/29 12:27:32;;;;;;;3.38;3.08;;;;;;;44.20;12.40;99895.81;5132791;27;42644;-79
2022/04/29 12:35:30;;;;;;;2.85;2.65;;;;;;;43.06;11.54;99894.16;5135711;27;41686;-78
2022/04/29 12:37:58;;;;;;;2.92;2.72;;;;;;;41.93;11.93;99850.78;5142848;27;43816;-78
2022/04/29 12:40:31;;;;;;;3.05;2.85;;;;;;;41.70;12.38;99884.69;5140179;27;42566;-80